METAR Data
IDs: Format: Raw Decoded Include TAF

Data at: 2019 UTC 19 May 2019

KACT 191951Z VRB03KT 10SM CLR 31/20 A2987 RMK AO2 SLP108 T03110200 $
KACT 191851Z VRB04KT 10SM SCT037 31/20 A2988 RMK AO2 SLP111 T03060200 $
KACT 191751Z 03005KT 10SM SCT032 29/19 A2990 RMK AO2 SLP116 T02940194 10300 20228 53009 $
KACT 191651Z 34007KT 10SM CLR 29/19 A2989 RMK AO2 SLP113 T02940189 $
KACT 191551Z 31007KT 10SM CLR 28/20 A2988 RMK AO2 SLP109 T02830200 $
KACT 191514Z 34010KT 10SM SCT019 27/18 A2988 RMK AO2 T02670183 $
KACT 191451Z 29008KT 6SM HZ SCT017 28/22 A2987 RMK AO2 SLP106 T02780222 51022 $
KACT 191406Z 32007KT 6SM HZ FEW016 FEW027 26/22 A2987 RMK AO2 T02610222 $
KACT 191349Z 30007KT 6SM HZ SCT006 SCT021 26/23 A2986 RMK AO2 SLP105 T02560228 $
KACT 191348Z 30006KT 6SM HZ SCT006 SCT021 26/23 A2986 RMK AO2 $
KACT 191324Z 28006KT 9SM FEW008 BKN023 25/23 A2986 RMK AO2 T02500228 $
KACT 191258Z 20005KT 8SM CLR 24/23 A2985 RMK AO2 T02440228 $
KACT 191251Z 21004KT 7SM BKN020 24/23 A2984 RMK AO2 SLP099 T02390228 $
KACT 191151Z 17006KT 5SM BR BKN020 23/22 A2980 RMK AO2 SLP085 70004 T02280217 10250 20217 51019 $
KACT 191104Z AUTO 15004KT 3SM BR OVC021 22/21 A2979 RMK AO2 T02220211 $
KACT 191051Z AUTO 00000KT 1SM BR BKN021 22/21 A2979 RMK AO2 SLP079 T02170211 $
KACT 191047Z AUTO 00000KT 1 3/4SM BR BKN023 22/21 A2978 RMK AO2 $
KACT 190951Z AUTO 23003KT 9SM FEW011 OVC024 24/23 A2978 RMK AO2 SLP076 T02390228 $
KACT 190851Z AUTO 20007KT 9SM BKN019 24/23 A2975 RMK AO2 SLP067 T02390228 53007 $
KACT 190834Z AUTO 20007KT 9SM SCT018 24/23 A2974 RMK AO2 T02390228 $
KACT 190751Z AUTO 20010KT 10SM BKN015 24/23 A2974 RMK AO2 SLP062 T02440228 $
KACT 190729Z AUTO 21011KT 10SM OVC015 24/23 A2973 RMK AO2 T02440228 $
KACT 190651Z AUTO 20013G20KT 10SM OVC010 25/23 A2973 RMK AO2 SLP060 T02500233 $
KACT 190638Z AUTO 21011KT 9SM OVC010 24/23 A2973 RMK AO2 T02440233 $
KACT 190551Z AUTO 20009KT 9SM OVC009 24/23 A2972 RMK AO2 SLP057 T02390228 10267 20233 402890206 51011 $
KACT 190524Z AUTO 18005KT 9SM BKN009 OVC017 24/23 A2973 RMK AO2 T02390228 $
KACT 190451Z AUTO 18007KT 9SM BKN018 24/23 A2972 RMK AO2 SLP057 T02390228 $
KACT 190351Z 18005KT 9SM CLR 23/23 A2972 RMK AO2 SLP057 T02330228 $
KACT 190325Z 18006KT 10SM SCT021 24/23 A2971 RMK AO2 T02390228 $
KACT 190251Z 17006KT 10SM OVC023 24/23 A2969 RMK AO2 SLP047 T02440228 52017 $
KACT 190233Z 16005KT 10SM BKN023 24/23 A2968 RMK AO2 T02440233 $
KACT 190151Z 16007KT 10SM FEW100 25/23 A2968 RMK AO2 SLP042 T02500233 $
KACT 190051Z 18010KT 10SM CLR 26/23 A2966 RMK AO2 SLP036 T02560233 $
KACT 182351Z 18013G20KT 10SM CLR 27/23 A2964 RMK AO2 RAE49 SLP030 P0000 60002 T02670233 10289 20206 51001 $
KACT 182251Z 19008KT 10SM -RA CLR 26/23 A2963 RMK AO2 LTG DSNT E AND SE RAB42 SLP027 P0000 T02560228 $
KACT 182151Z 18008KT 10SM VCTS SCT030 BKN040 OVC050 23/21 A2965 RMK AO2 LTG DSNT E-S RAB33E44 TSE2053B2054E51 SLP034 P0000 T02280211 $
KACT 182051Z 19020G27KT 10SM TS SCT037 BKN060 OVC110 21/18 A2964 RMK AO2 PK WND 16027/2016 WSHFT 2021 LTG DSNT ALQDS RAE39 SLP030 P0002 60002 T02110178 58016
KACT 182041Z 18016G27KT 10SM TS FEW018 SCT085 OVC110 21/18 A2965 RMK AO2 PK WND 16027/2016 WSHFT 2021 LTG DSNT ALQDS RAE39 P0002 T02060178
KACT 182022Z 18016G27KT 10SM -TSRA FEW018 SCT085 OVC100 24/23 A2960 RMK AO2 PK WND 16027/2016 WSHFT 2002 LTG DSNT ALQDS P0002 T02440228
KACT 182004Z 21012KT 9SM -TSRA SCT029 BKN050 OVC110 25/23 A2966 RMK AO2 LTG DSNT ALQDS P0002 T02500228
KACT 181951Z 22011KT 10SM -TSRA SCT035 BKN050 27/22 A2969 RMK AO2 PK WND 18027/1914 LTG DSNT ALQDS RAB00E20B22 TSB45 PRESRR SLP048 P0000 T02670222
KACT 181921Z 18015G27KT 10SM VCTS FEW032 SCT046 BKN055 27/22 A2966 RMK AO2 PK WND 18027/1914 LTG DSNT S-NW RAB00E20 P0000 T02720222
KACT 181851Z 18018G27KT 10SM SCT035 BKN043 OVC060 28/22 A2967 RMK AO2 PK WND 19027/1836 LTG DSNT SW AND W RAE48 SLP038 P0000 T02830222
KACT 181751Z 17015G22KT 10SM -RA SCT027 28/23 A2969 RMK AO2 RAB04E12B44 SLP044 P0000 60002 T02830228 10283 20239 58008
KACT 181651Z 17012KT 10SM FEW026 BKN035 OVC060 27/23 A2972 RMK AO2 RAB1555E29 SLP055 P0001 T02670228
KACT 181638Z 18012KT 10SM SCT026 BKN038 OVC060 26/23 A2972 RMK AO2 RAB1555E29 P0001 T02560228
KACT 181624Z 18010KT 10SM -RA SCT023 BKN029 OVC042 25/22 A2972 RMK AO2 RAB1555 P0001 T02500222
KACT 181551Z 16014G21KT 10SM FEW021 BKN040 OVC049 26/22 A2971 RMK AO2 RAE40 SLP051 P0000 T02610217
KACT 181547Z 16015G21KT 10SM SCT024 BKN033 OVC049 26/22 A2971 RMK AO2 RAE40 P0000
KACT 181451Z 16014KT 10SM -RA SCT021 BKN029 OVC070 25/22 A2971 RMK AO2 SLP054 P0000 60001 T02500217 58010
KACT 181351Z 15012G19KT 10SM -RA BKN016 BKN021 OVC030 24/22 A2971 RMK AO2 RAE03B20 SLP053 P0000 T02440217
KACT 181251Z 16012KT 9SM -RA SCT018 BKN023 OVC065 24/22 A2975 RMK AO2 RAB47 SLP065 P0001 T02390217
KACT 181151Z 15012KT 10SM FEW014 BKN021 OVC027 24/22 A2974 RMK AO2 SLP063 T02390217 10256 20239 55002
KACT 181051Z AUTO 14012KT 10SM BKN017 OVC024 24/22 A2973 RMK AO2 SLP060 T02390217
KACT 180951Z AUTO 15011KT 10SM OVC018 24/22 A2973 RMK AO2 SLP060 T02390217
KACT 180851Z AUTO 15012KT 10SM BKN017 OVC022 24/21 A2975 RMK AO2 SLP065 T02390211 58008